createdAt,value
2022-07-27T00:00:42.091Z,69.57
2022-07-27T00:01:51.134Z,69.27
2022-07-27T00:02:41.923Z,69.27
2022-07-27T00:03:41.879Z,68.99
2022-07-27T00:04:41.957Z,69.18
2022-07-27T00:05:41.784Z,69.27
2022-07-27T00:06:41.740Z,69.47
2022-07-27T00:07:41.695Z,69.18
2022-07-27T00:08:41.647Z,69.27
2022-07-27T00:09:41.602Z,69.27
2022-07-27T00:10:41.555Z,69.47
2022-07-27T00:11:41.509Z,69.27
2022-07-27T00:12:41.465Z,69.18
2022-07-27T00:13:41.426Z,69.27
2022-07-27T00:14:41.375Z,69.27
2022-07-27T00:15:41.332Z,69.37
2022-07-27T00:16:41.347Z,69.47
2022-07-27T00:17:41.237Z,69.47
2022-07-27T00:18:41.191Z,69.57
2022-07-27T00:19:41.145Z,69.37
2022-07-27T00:20:41.101Z,69.57
2022-07-27T00:21:44.735Z,69.47
2022-07-27T00:22:41.009Z,69.57
2022-07-27T00:23:40.964Z,69.67
2022-07-27T00:24:40.915Z,69.57
2022-07-27T00:25:40.871Z,69.67
2022-07-27T00:26:40.829Z,69.95
2022-07-27T00:27:40.781Z,69.95
2022-07-27T00:28:40.737Z,69.76
2022-07-27T00:29:40.688Z,69.76
2022-07-27T00:30:40.659Z,69.76
2022-07-27T00:31:40.634Z,69.85
2022-07-27T00:32:40.549Z,70.05
2022-07-27T00:33:40.507Z,69.95
2022-07-27T00:34:40.460Z,69.95
2022-07-27T00:35:40.413Z,70.05
2022-07-27T00:36:40.369Z,70.05
2022-07-27T00:37:40.321Z,69.95
2022-07-27T00:38:40.279Z,69.95
2022-07-27T00:39:40.234Z,69.95
2022-07-27T00:40:40.186Z,69.95
2022-07-27T00:41:40.141Z,69.95
2022-07-27T00:42:40.092Z,69.76
2022-07-27T00:43:40.049Z,69.85
2022-07-27T00:44:40.002Z,69.85
2022-07-27T00:45:39.962Z,69.67
2022-07-27T00:46:39.963Z,69.57
2022-07-27T00:47:39.866Z,69.57
2022-07-27T00:48:39.855Z,69.57
2022-07-27T00:49:39.774Z,69.47
2022-07-27T00:50:39.728Z,69.57
2022-07-27T00:51:39.680Z,69.57
2022-07-27T00:52:39.633Z,69.57
2022-07-27T00:53:39.593Z,69.76
2022-07-27T00:54:39.545Z,69.76
2022-07-27T00:55:39.496Z,69.67
2022-07-27T00:56:39.454Z,69.76
2022-07-27T00:57:59.533Z,69.76
2022-07-27T00:58:39.359Z,69.85
2022-07-27T00:59:39.314Z,69.67
2022-07-27T01:00:39.268Z,69.67
2022-07-27T01:01:39.294Z,69.67
2022-07-27T01:02:39.313Z,69.47
2022-07-27T01:03:39.493Z,69.67
2022-07-27T01:04:39.509Z,69.67
2022-07-27T01:05:41.786Z,69.85
2022-07-27T01:06:38.999Z,69.95
2022-07-27T01:07:38.953Z,69.95
2022-07-27T01:08:38.902Z,69.85
2022-07-27T01:09:38.856Z,69.85
2022-07-27T01:10:38.808Z,69.85
2022-07-27T01:11:38.768Z,69.95
2022-07-27T01:12:38.723Z,70.15
2022-07-27T01:13:38.672Z,70.15
2022-07-27T01:14:38.628Z,70.25
2022-07-27T01:15:38.621Z,69.95
2022-07-27T01:16:38.611Z,69.95
2022-07-27T01:17:38.492Z,69.95
2022-07-27T01:18:38.441Z,69.95
2022-07-27T01:19:38.398Z,69.95
2022-07-27T01:20:38.351Z,69.95
2022-07-27T01:21:38.311Z,69.95
2022-07-27T01:22:38.264Z,70.25
2022-07-27T01:23:38.213Z,70.15
2022-07-27T01:24:38.168Z,70.05
2022-07-27T01:25:38.123Z,69.85
2022-07-27T01:26:38.075Z,70.15
2022-07-27T01:27:38.032Z,69.85
2022-07-27T01:28:37.982Z,69.82
2022-07-27T01:29:37.945Z,69.82
2022-07-27T01:30:37.895Z,69.67
2022-07-27T01:31:37.911Z,69.63
2022-07-27T01:32:37.801Z,69.76
2022-07-27T01:33:37.755Z,69.95
2022-07-27T01:34:37.709Z,69.63
2022-07-27T01:35:37.673Z,69.82
2022-07-27T01:36:37.617Z,69.82
2022-07-27T01:37:37.570Z,69.82
2022-07-27T01:38:37.525Z,69.73
2022-07-27T01:39:37.479Z,69.82
2022-07-27T01:40:37.439Z,69.73
2022-07-27T01:41:37.387Z,69.73
2022-07-27T01:42:37.346Z,69.73
2022-07-27T01:43:37.295Z,69.82
2022-07-27T01:44:37.250Z,69.92
2022-07-27T01:45:37.204Z,69.73
2022-07-27T01:46:37.252Z,69.92
2022-07-27T01:47:37.113Z,69.82
2022-07-27T01:48:37.119Z,69.92
2022-07-27T01:49:37.019Z,70.01
2022-07-27T01:50:36.976Z,70.11
2022-07-27T01:51:36.928Z,70.11
2022-07-27T01:52:36.879Z,69.92
2022-07-27T01:53:36.839Z,70.01
2022-07-27T01:54:36.789Z,70.01
2022-07-27T01:55:39.184Z,69.82
2022-07-27T01:56:36.697Z,70.11
2022-07-27T01:57:36.654Z,70.11
2022-07-27T01:58:36.606Z,69.92
2022-07-27T01:59:36.563Z,70.21
2022-07-27T02:00:36.513Z,69.92
2022-07-27T02:01:36.521Z,70.11
2022-07-27T02:02:36.422Z,70.31
2022-07-27T02:03:36.375Z,70.31
2022-07-27T02:04:36.331Z,69.92
2022-07-27T02:05:36.403Z,70.11
2022-07-27T02:06:36.238Z,70.50
2022-07-27T02:07:36.191Z,70.01
2022-07-27T02:08:36.145Z,70.01
2022-07-27T02:09:36.101Z,70.11
2022-07-27T02:10:36.053Z,70.21
2022-07-27T02:11:36.009Z,70.01
2022-07-27T02:12:35.961Z,70.21
2022-07-27T02:13:35.916Z,70.11
2022-07-27T02:14:35.870Z,70.21
2022-07-27T02:15:38.822Z,70.01
2022-07-27T02:16:35.819Z,70.01
2022-07-27T02:17:35.732Z,70.11
2022-07-27T02:18:37.010Z,70.31
2022-07-27T02:19:35.640Z,70.01
2022-07-27T02:20:35.592Z,70.40
2022-07-27T02:21:35.547Z,70.11
2022-07-27T02:22:35.507Z,70.40
2022-07-27T02:23:35.461Z,70.21
2022-07-27T02:24:35.409Z,70.01
2022-07-27T02:25:35.363Z,70.21
2022-07-27T02:26:35.326Z,70.40
2022-07-27T02:27:35.278Z,70.01
2022-07-27T02:28:35.227Z,70.01
2022-07-27T02:29:35.180Z,70.11
2022-07-27T02:30:35.132Z,70.01
2022-07-27T02:31:35.087Z,70.11
2022-07-27T02:32:35.098Z,70.11
2022-07-27T02:33:34.995Z,70.11
2022-07-27T02:34:34.948Z,70.11
2022-07-27T02:35:34.902Z,69.82
2022-07-27T02:36:34.858Z,69.82
2022-07-27T02:37:34.811Z,70.01
2022-07-27T02:38:34.765Z,70.11
2022-07-27T02:39:34.721Z,69.92
2022-07-27T02:40:34.674Z,70.01
2022-07-27T02:41:34.626Z,69.73
2022-07-27T02:42:34.579Z,69.82
2022-07-27T02:43:34.538Z,70.11
2022-07-27T02:44:34.972Z,70.08
2022-07-27T02:45:34.442Z,70.11
2022-07-27T02:46:34.472Z,70.11
2022-07-27T02:47:34.350Z,69.92
2022-07-27T02:48:34.336Z,69.92
2022-07-27T02:49:34.257Z,70.47
2022-07-27T02:50:34.210Z,69.92
2022-07-27T02:51:34.167Z,70.21
2022-07-27T02:52:34.118Z,70.11
2022-07-27T02:53:34.072Z,70.01
2022-07-27T02:54:34.025Z,69.82
2022-07-27T02:55:33.981Z,69.73
2022-07-27T02:56:33.940Z,69.73
2022-07-27T02:57:33.890Z,70.01
2022-07-27T02:58:33.847Z,69.92
2022-07-27T02:59:33.797Z,69.89
2022-07-27T03:00:33.748Z,69.82
2022-07-27T03:01:33.773Z,69.69
2022-07-27T03:02:33.658Z,69.69
2022-07-27T03:03:36.265Z,69.73
2022-07-27T03:04:33.611Z,69.59
2022-07-27T03:05:33.523Z,69.98
2022-07-27T03:06:33.474Z,69.89
2022-07-27T03:07:33.429Z,69.79
2022-07-27T03:08:33.377Z,69.89
2022-07-27T03:09:33.710Z,69.98
2022-07-27T03:10:33.287Z,69.98
2022-07-27T03:11:33.241Z,69.89
2022-07-27T03:12:33.194Z,69.69
2022-07-27T03:13:33.151Z,69.69
2022-07-27T03:14:33.108Z,69.79
2022-07-27T03:15:33.085Z,69.79
2022-07-27T03:16:33.011Z,69.79
2022-07-27T03:17:33.046Z,69.79
2022-07-27T03:18:32.916Z,70.18
2022-07-27T03:19:32.871Z,69.79
2022-07-27T03:20:32.829Z,69.89
2022-07-27T03:21:32.782Z,70.18
2022-07-27T03:22:32.732Z,69.98
2022-07-27T03:23:32.686Z,70.18
2022-07-27T03:24:32.639Z,70.18
2022-07-27T03:25:32.595Z,69.98
2022-07-27T03:26:32.553Z,69.89
2022-07-27T03:27:32.504Z,70.18
2022-07-27T03:28:32.455Z,70.08
2022-07-27T03:29:32.412Z,70.08
2022-07-27T03:30:32.459Z,70.18
2022-07-27T03:31:32.330Z,69.89
2022-07-27T03:32:32.272Z,69.98
2022-07-27T03:33:32.225Z,69.89
2022-07-27T03:34:32.184Z,69.98
2022-07-27T03:35:32.131Z,69.98
2022-07-27T03:36:32.086Z,69.98
2022-07-27T03:37:32.040Z,69.89
2022-07-27T03:38:31.993Z,69.89
2022-07-27T03:39:31.948Z,69.89
2022-07-27T03:40:31.903Z,69.79
2022-07-27T03:41:31.861Z,69.89
2022-07-27T03:42:31.807Z,69.89
2022-07-27T03:43:31.763Z,69.89
2022-07-27T03:44:31.719Z,69.89
2022-07-27T03:45:31.670Z,69.79
2022-07-27T03:46:31.650Z,69.89
2022-07-27T03:47:31.578Z,69.89
2022-07-27T03:48:31.587Z,69.79
2022-07-27T03:49:31.506Z,69.89
2022-07-27T03:50:31.440Z,69.89
2022-07-27T03:51:31.396Z,69.89
2022-07-27T03:52:31.368Z,69.79
2022-07-27T03:53:31.300Z,69.89
2022-07-27T03:54:31.256Z,69.79
2022-07-27T03:55:31.207Z,69.89
2022-07-27T03:56:31.158Z,69.89
2022-07-27T03:57:31.119Z,69.89
2022-07-27T03:58:31.067Z,69.89
2022-07-27T03:59:31.021Z,69.89
2022-07-27T04:00:30.974Z,69.89
2022-07-27T04:01:31.027Z,69.89
2022-07-27T04:02:30.943Z,69.89
2022-07-27T04:03:30.836Z,69.89
2022-07-27T04:04:30.787Z,69.89
2022-07-27T04:05:30.745Z,69.89
2022-07-27T04:06:30.702Z,69.89
2022-07-27T04:07:30.649Z,69.89
2022-07-27T04:08:30.636Z,69.98
2022-07-27T04:09:30.602Z,69.98
2022-07-27T04:10:31.754Z,69.98
2022-07-27T04:11:30.464Z,70.18
2022-07-27T04:12:30.420Z,70.18
2022-07-27T04:13:30.371Z,70.18
2022-07-27T04:14:30.325Z,69.95
2022-07-27T04:15:30.304Z,69.79
2022-07-27T04:16:35.609Z,69.79
2022-07-27T04:17:54.119Z,69.98
2022-07-27T04:18:30.141Z,69.79
2022-07-27T04:19:30.092Z,69.59
2022-07-27T04:20:30.047Z,69.69
2022-07-27T04:21:33.525Z,69.69
2022-07-27T04:22:29.953Z,69.89
2022-07-27T04:23:32.615Z,69.89
2022-07-27T04:24:29.860Z,69.69
2022-07-27T04:25:29.816Z,69.69
2022-07-27T04:26:29.779Z,69.69
2022-07-27T04:27:29.758Z,69.95
2022-07-27T04:28:29.673Z,70.04
2022-07-27T04:29:29.629Z,70.04
2022-07-27T04:30:29.669Z,69.85
2022-07-27T04:31:29.555Z,70.14
2022-07-27T04:32:29.489Z,70.24
2022-07-27T04:33:29.442Z,69.95
2022-07-27T04:34:29.398Z,69.95
2022-07-27T04:35:29.348Z,70.18
2022-07-27T04:36:29.305Z,70.18
2022-07-27T04:37:29.256Z,70.08
2022-07-27T04:38:29.212Z,70.04
2022-07-27T04:39:29.162Z,70.14
2022-07-27T04:40:29.120Z,70.14
2022-07-27T04:41:29.667Z,70.14
2022-07-27T04:42:29.026Z,70.14
2022-07-27T04:43:29.635Z,69.89
2022-07-27T04:44:28.933Z,69.85
2022-07-27T04:45:28.884Z,70.14
2022-07-27T04:46:28.969Z,70.43
2022-07-27T04:47:28.793Z,70.08
2022-07-27T04:48:28.749Z,70.04
2022-07-27T04:49:28.779Z,70.14
2022-07-27T04:50:28.655Z,70.14
2022-07-27T04:51:34.090Z,70.04
2022-07-27T04:52:28.921Z,70.04
2022-07-27T04:53:28.515Z,70.04
2022-07-27T04:54:28.469Z,69.85
2022-07-27T04:55:29.474Z,70.04
2022-07-27T04:56:28.376Z,70.24
2022-07-27T04:57:28.327Z,70.34
2022-07-27T04:58:28.286Z,70.62
2022-07-27T04:59:28.234Z,70.53
2022-07-27T05:00:28.187Z,70.43
2022-07-27T05:01:33.114Z,70.43
2022-07-27T05:02:28.096Z,70.34
2022-07-27T05:03:28.047Z,70.34
2022-07-27T05:04:28.054Z,70.34
2022-07-27T05:05:27.956Z,70.34
2022-07-27T05:06:27.910Z,69.98
2022-07-27T05:07:27.863Z,69.85
2022-07-27T05:08:27.816Z,69.95
2022-07-27T05:09:27.768Z,71.11
2022-07-27T05:10:27.724Z,70.43
2022-07-27T05:11:27.684Z,70.62
2022-07-27T05:12:27.631Z,70.82
2022-07-27T05:13:27.581Z,71.01
2022-07-27T05:14:27.538Z,70.92
2022-07-27T05:15:27.492Z,70.62
2022-07-27T05:16:29.070Z,70.82
2022-07-27T05:17:27.394Z,70.72
2022-07-27T05:18:27.354Z,70.72
2022-07-27T05:19:39.967Z,70.92
2022-07-27T05:20:27.258Z,70.82
2022-07-27T05:21:27.219Z,71.11
2022-07-27T05:22:27.164Z,71.40
2022-07-27T05:23:27.116Z,71.01
2022-07-27T05:24:27.071Z,71.20
2022-07-27T05:25:27.024Z,71.20
2022-07-27T05:26:26.977Z,71.40
2022-07-27T05:27:26.930Z,71.01
2022-07-27T05:28:26.885Z,71.11
2022-07-27T05:29:26.840Z,71.30
2022-07-27T05:30:26.794Z,71.01
2022-07-27T05:31:26.809Z,71.11
2022-07-27T05:32:26.698Z,71.01
2022-07-27T05:33:26.651Z,71.20
2022-07-27T05:34:26.607Z,71.40
2022-07-27T05:35:26.557Z,70.92
2022-07-27T05:36:26.511Z,71.01
2022-07-27T05:37:26.467Z,71.30
2022-07-27T05:38:26.419Z,71.01
2022-07-27T05:39:26.370Z,71.30
2022-07-27T05:40:26.338Z,71.20
2022-07-27T05:41:26.290Z,71.30
2022-07-27T05:42:26.235Z,72.08
2022-07-27T05:43:26.187Z,72.08
2022-07-27T05:44:26.138Z,71.78
2022-07-27T05:45:26.114Z,72.17
2022-07-27T05:46:29.647Z,72.08
2022-07-27T05:47:25.998Z,72.08
2022-07-27T05:48:25.952Z,71.98
2022-07-27T05:49:25.963Z,71.40
2022-07-27T05:50:25.861Z,71.59
2022-07-27T05:51:25.810Z,71.69
2022-07-27T05:52:25.766Z,71.69
2022-07-27T05:53:25.720Z,71.69
2022-07-27T05:54:25.673Z,72.08
2022-07-27T05:55:25.627Z,72.08
2022-07-27T05:56:25.580Z,72.36
2022-07-27T05:57:25.531Z,72.36
2022-07-27T05:58:25.488Z,72.36
2022-07-27T05:59:25.441Z,72.36
2022-07-27T06:00:25.402Z,72.36
2022-07-27T06:01:25.411Z,72.27
2022-07-27T06:02:25.301Z,72.17
2022-07-27T06:03:25.286Z,72.08
2022-07-27T06:04:25.206Z,72.08
2022-07-27T06:05:25.159Z,72.36
2022-07-27T06:06:25.113Z,72.36
2022-07-27T06:07:25.064Z,72.17
2022-07-27T06:08:25.022Z,72.08
2022-07-27T06:09:24.973Z,72.36
2022-07-27T06:10:24.927Z,72.17
2022-07-27T06:11:24.879Z,72.27
2022-07-27T06:12:29.892Z,72.17
2022-07-27T06:13:28.327Z,72.17
2022-07-27T06:14:24.741Z,71.98
2022-07-27T06:15:24.689Z,72.17
2022-07-27T06:16:24.676Z,72.17
2022-07-27T06:17:24.598Z,72.27
2022-07-27T06:18:24.552Z,72.27
2022-07-27T06:19:24.505Z,71.98
2022-07-27T06:20:24.460Z,72.27
2022-07-27T06:21:24.413Z,72.08
2022-07-27T06:22:24.369Z,71.98
2022-07-27T06:23:24.319Z,72.17
2022-07-27T06:24:24.273Z,72.17
2022-07-27T06:25:34.182Z,71.88
2022-07-27T06:26:24.180Z,72.08
2022-07-27T06:27:29.341Z,72.17
2022-07-27T06:28:24.088Z,72.56
2022-07-27T06:29:24.038Z,72.56
2022-07-27T06:30:23.999Z,71.98
2022-07-27T06:31:23.986Z,72.36
2022-07-27T06:32:23.907Z,72.27
2022-07-27T06:33:23.851Z,72.27
2022-07-27T06:34:23.808Z,72.46
2022-07-27T06:35:23.758Z,72.36
2022-07-27T06:36:23.712Z,72.08
2022-07-27T06:37:23.667Z,72.46
2022-07-27T06:38:23.622Z,72.36
2022-07-27T06:39:23.570Z,72.75
2022-07-27T06:40:27.328Z,72.56
2022-07-27T06:41:23.478Z,72.56
2022-07-27T06:42:23.432Z,72.56
2022-07-27T06:43:23.385Z,72.56
2022-07-27T06:44:23.342Z,72.36
2022-07-27T06:45:23.290Z,72.46
2022-07-27T06:46:23.253Z,72.56
2022-07-27T06:47:28.500Z,72.56
2022-07-27T06:48:23.152Z,72.66
2022-07-27T06:49:23.188Z,72.56
2022-07-27T06:50:23.058Z,72.56
2022-07-27T06:51:23.011Z,72.75
2022-07-27T06:52:23.021Z,72.36
2022-07-27T06:53:22.920Z,72.75
2022-07-27T06:54:22.877Z,72.17
2022-07-27T06:55:22.823Z,72.17
2022-07-27T06:56:22.779Z,72.56
2022-07-27T06:57:22.737Z,72.85
2022-07-27T06:58:22.685Z,72.66
2022-07-27T06:59:22.635Z,72.85
2022-07-27T07:00:22.592Z,72.66
2022-07-27T07:01:22.594Z,72.85
2022-07-27T07:02:22.500Z,73.04
2022-07-27T07:03:22.471Z,73.04
2022-07-27T07:04:23.948Z,72.56
2022-07-27T07:05:22.366Z,72.56
2022-07-27T07:06:22.311Z,72.66
2022-07-27T07:07:22.262Z,72.66
2022-07-27T07:08:22.219Z,72.66
2022-07-27T07:09:22.174Z,72.56
2022-07-27T07:10:23.996Z,72.75
2022-07-27T07:11:22.076Z,72.85
2022-07-27T07:12:22.031Z,72.85
2022-07-27T07:13:21.985Z,72.85
2022-07-27T07:14:21.938Z,72.85
2022-07-27T07:15:21.888Z,72.66
2022-07-27T07:16:21.893Z,72.85
2022-07-27T07:17:21.797Z,72.85
2022-07-27T07:18:21.749Z,72.75
2022-07-27T07:19:21.706Z,72.75
2022-07-27T07:20:21.658Z,72.85
2022-07-27T07:21:21.609Z,72.75
2022-07-27T07:22:21.563Z,72.75
2022-07-27T07:23:21.517Z,72.85
2022-07-27T07:24:21.469Z,72.85
2022-07-27T07:25:21.422Z,72.27
2022-07-27T07:26:21.377Z,72.75
2022-07-27T07:27:21.327Z,72.36
2022-07-27T07:28:21.282Z,72.46
2022-07-27T07:29:21.233Z,72.56
2022-07-27T07:30:21.188Z,72.36
2022-07-27T07:31:21.159Z,72.46
2022-07-27T07:32:21.096Z,72.56
2022-07-27T07:33:21.050Z,72.36
2022-07-27T07:34:21.005Z,72.66
2022-07-27T07:35:20.960Z,72.66
2022-07-27T07:36:20.911Z,72.56
2022-07-27T07:37:20.862Z,73.04
2022-07-27T07:38:20.816Z,72.27
2022-07-27T07:39:20.767Z,72.27
2022-07-27T07:41:20.676Z,72.27
2022-07-27T07:42:20.628Z,72.27
2022-07-27T07:43:20.582Z,72.27
2022-07-27T07:44:20.543Z,72.66
2022-07-27T07:45:20.496Z,72.36
2022-07-27T07:46:20.466Z,72.85
2022-07-27T07:47:20.392Z,72.27
2022-07-27T07:48:20.356Z,73.24
2022-07-27T07:49:37.777Z,72.17
2022-07-27T07:50:20.257Z,72.27
2022-07-27T07:51:20.206Z,72.85
2022-07-27T07:52:20.160Z,72.95
2022-07-27T07:53:20.113Z,72.85
2022-07-27T07:54:20.068Z,73.04
2022-07-27T07:55:20.021Z,72.95
2022-07-27T07:56:19.974Z,72.85
2022-07-27T07:57:19.927Z,72.95
2022-07-27T07:58:19.881Z,72.95
2022-07-27T07:59:19.831Z,72.95
2022-07-27T08:00:19.809Z,72.95
2022-07-27T08:01:19.789Z,73.04
2022-07-27T08:02:19.750Z,72.75
2022-07-27T08:03:19.891Z,72.75
2022-07-27T08:04:19.602Z,72.75
2022-07-27T08:05:19.552Z,72.95
2022-07-27T08:06:19.510Z,72.85
2022-07-27T08:07:19.456Z,73.04
2022-07-27T08:08:19.418Z,72.75
2022-07-27T08:09:19.370Z,72.75
2022-07-27T08:10:19.320Z,72.75
2022-07-27T08:11:19.276Z,72.75
2022-07-27T08:12:19.229Z,73.04
2022-07-27T08:13:22.305Z,73.04
2022-07-27T08:14:19.139Z,72.85
2022-07-27T08:15:19.084Z,72.75
2022-07-27T08:16:19.074Z,72.75
2022-07-27T08:17:18.989Z,73.04
2022-07-27T08:18:18.948Z,73.33
2022-07-27T08:19:18.900Z,73.14
2022-07-27T08:20:18.851Z,72.85
2022-07-27T08:21:18.804Z,73.04
2022-07-27T08:22:18.758Z,73.24
2022-07-27T08:23:18.750Z,73.14
2022-07-27T08:24:18.668Z,73.14
2022-07-27T08:25:18.637Z,73.24
2022-07-27T08:26:18.579Z,73.33
2022-07-27T08:27:18.526Z,73.24
2022-07-27T08:28:18.478Z,73.24
2022-07-27T08:29:18.756Z,73.24
2022-07-27T08:30:18.390Z,73.33
2022-07-27T08:31:24.585Z,73.24
2022-07-27T08:32:18.326Z,73.33
2022-07-27T08:33:18.243Z,73.24
2022-07-27T08:34:18.197Z,73.14
2022-07-27T08:35:18.149Z,73.14
2022-07-27T08:36:18.102Z,73.33
2022-07-27T08:37:18.054Z,73.24
2022-07-27T08:38:18.018Z,73.33
2022-07-27T08:39:52.492Z,72.75
2022-07-27T08:40:47.699Z,72.85
2022-07-27T08:41:17.867Z,73.43
2022-07-27T08:42:17.822Z,72.85
2022-07-27T08:43:24.305Z,72.85
2022-07-27T08:44:17.730Z,72.75
2022-07-27T08:45:17.683Z,73.04
2022-07-27T08:46:17.707Z,72.75
2022-07-27T08:47:17.589Z,72.95
2022-07-27T08:48:17.542Z,73.33
2022-07-27T08:49:18.101Z,72.85
2022-07-27T08:50:17.446Z,73.43
2022-07-27T08:51:17.400Z,72.95
2022-07-27T08:52:17.357Z,72.95
2022-07-27T08:53:17.311Z,72.95
2022-07-27T08:54:17.262Z,73.43
2022-07-27T08:55:17.214Z,72.95
2022-07-27T08:56:17.167Z,73.43
2022-07-27T08:57:17.120Z,73.24
2022-07-27T08:58:17.079Z,73.04
2022-07-27T08:59:17.026Z,73.24
2022-07-27T09:00:16.981Z,73.33
2022-07-27T09:01:17.055Z,73.43
2022-07-27T09:02:16.993Z,73.14
2022-07-27T09:03:20.207Z,73.33
2022-07-27T09:04:16.791Z,73.43
2022-07-27T09:05:16.747Z,73.43
2022-07-27T09:06:16.700Z,73.53
2022-07-27T09:07:16.656Z,73.53
2022-07-27T09:08:16.605Z,73.43
2022-07-27T09:09:16.817Z,73.04
2022-07-27T09:10:16.511Z,73.04
2022-07-27T09:11:16.463Z,73.63
2022-07-27T09:12:16.416Z,73.63
2022-07-27T09:13:16.372Z,73.43
2022-07-27T09:14:16.325Z,73.63
2022-07-27T09:15:16.277Z,73.43
2022-07-27T09:16:18.538Z,73.72
2022-07-27T09:17:47.544Z,73.53
2022-07-27T09:18:16.177Z,73.53
2022-07-27T09:19:16.297Z,73.72
2022-07-27T09:20:18.656Z,73.24
2022-07-27T09:21:16.000Z,73.43
2022-07-27T09:22:15.950Z,73.53
2022-07-27T09:23:15.904Z,73.53
2022-07-27T09:24:44.288Z,73.53
2022-07-27T09:25:15.811Z,73.53
2022-07-27T09:26:30.446Z,73.43
2022-07-27T09:27:15.715Z,73.53
2022-07-27T09:28:15.668Z,73.53
2022-07-27T09:29:15.927Z,73.63
2022-07-27T09:30:15.646Z,73.53
2022-07-27T09:31:15.598Z,73.53
2022-07-27T09:32:15.488Z,73.43
2022-07-27T09:33:15.437Z,73.63
2022-07-27T09:34:15.388Z,73.63
2022-07-27T09:35:15.346Z,73.43
2022-07-27T09:36:15.298Z,73.43
2022-07-27T09:37:15.250Z,73.82
2022-07-27T09:38:15.201Z,73.63
2022-07-27T09:39:15.626Z,73.53
2022-07-27T09:40:15.286Z,73.43
2022-07-27T09:41:15.063Z,73.43
2022-07-27T09:42:38.280Z,73.82
2022-07-27T09:44:32.273Z,73.63
2022-07-27T09:45:14.876Z,73.72
2022-07-27T09:46:14.878Z,73.63
2022-07-27T09:47:14.785Z,73.63
2022-07-27T09:48:14.739Z,73.53
2022-07-27T09:49:14.802Z,73.53
2022-07-27T09:50:14.695Z,73.72
2022-07-27T09:51:57.814Z,73.43
2022-07-27T09:52:14.547Z,73.53
2022-07-27T09:53:41.295Z,73.72
2022-07-27T09:54:14.737Z,73.72
2022-07-27T09:55:14.546Z,73.63
2022-07-27T09:56:14.361Z,73.63
2022-07-27T09:57:14.316Z,73.43
2022-07-27T09:58:15.756Z,73.33
2022-07-27T09:59:14.221Z,73.53
2022-07-27T10:00:14.321Z,73.63
2022-07-27T10:01:14.177Z,73.63
2022-07-27T10:02:14.164Z,73.53
2022-07-27T10:03:14.035Z,73.43
2022-07-27T10:04:14.288Z,73.53
2022-07-27T10:05:14.095Z,73.53
2022-07-27T10:06:13.898Z,73.53
2022-07-27T10:07:14.039Z,73.43
2022-07-27T10:08:13.803Z,73.43
2022-07-27T10:09:13.756Z,73.04
2022-07-27T10:10:13.843Z,73.33
2022-07-27T10:11:13.661Z,72.95
2022-07-27T10:12:13.613Z,73.53
2022-07-27T10:13:13.568Z,73.53
2022-07-27T10:14:13.954Z,73.24
2022-07-27T10:15:13.474Z,73.53
2022-07-27T10:16:13.514Z,72.75
2022-07-27T10:17:13.383Z,73.14
2022-07-27T10:18:13.334Z,73.43
2022-07-27T10:19:13.288Z,73.14
2022-07-27T10:20:13.285Z,73.14
2022-07-27T10:21:13.194Z,73.04
2022-07-27T10:22:13.148Z,72.95
2022-07-27T10:23:13.099Z,73.24
2022-07-27T10:24:13.429Z,73.53
2022-07-27T10:25:13.006Z,73.14
2022-07-27T10:26:12.963Z,73.24
2022-07-27T10:27:12.916Z,73.43
2022-07-27T10:28:12.870Z,73.14
2022-07-27T10:29:12.822Z,73.43
2022-07-27T10:30:12.842Z,73.33
2022-07-27T10:31:12.754Z,72.75
2022-07-27T10:32:12.679Z,73.04
2022-07-27T10:33:12.635Z,72.85
2022-07-27T10:34:13.016Z,73.33
2022-07-27T10:35:12.540Z,73.27
2022-07-27T10:36:16.676Z,72.89
2022-07-27T10:37:12.447Z,72.56
2022-07-27T10:38:12.403Z,72.27
2022-07-27T10:39:12.352Z,72.66
2022-07-27T10:40:12.375Z,72.56
2022-07-27T10:41:12.260Z,72.56
2022-07-27T10:42:12.212Z,72.56
2022-07-27T10:43:12.165Z,72.36
2022-07-27T10:44:12.604Z,72.36
2022-07-27T10:45:12.073Z,72.46
2022-07-27T10:46:12.084Z,72.75
2022-07-27T10:47:11.984Z,72.36
2022-07-27T10:48:11.933Z,72.46
2022-07-27T10:49:11.924Z,72.56
2022-07-27T10:50:11.841Z,72.46
2022-07-27T10:51:11.791Z,72.36
2022-07-27T10:52:11.745Z,72.46
2022-07-27T10:53:11.705Z,72.27
2022-07-27T10:54:12.434Z,72.46
2022-07-27T10:55:11.606Z,72.56
2022-07-27T10:56:11.559Z,72.56
2022-07-27T10:57:11.513Z,72.36
2022-07-27T10:58:11.470Z,72.36
2022-07-27T10:59:11.425Z,71.98
2022-07-27T11:00:16.311Z,72.60
2022-07-27T11:01:11.360Z,72.08
2022-07-27T11:02:11.279Z,72.17
2022-07-27T11:03:11.233Z,72.46
2022-07-27T11:04:11.553Z,72.30
2022-07-27T11:05:32.537Z,72.27
2022-07-27T11:06:31.970Z,72.27
2022-07-27T11:07:34.287Z,72.17
2022-07-27T11:08:36.243Z,72.40
2022-07-27T11:10:10.909Z,71.98
2022-07-27T11:11:10.861Z,72.08
2022-07-27T11:12:10.822Z,71.98
2022-07-27T11:13:10.768Z,72.27
2022-07-27T11:14:11.050Z,72.27
2022-07-27T11:15:10.674Z,71.98
2022-07-27T11:16:26.136Z,72.50
2022-07-27T11:17:49.509Z,72.40
2022-07-27T11:18:15.009Z,72.30
2022-07-27T11:19:10.990Z,72.30
2022-07-27T11:20:10.441Z,72.11
2022-07-27T11:21:10.394Z,72.36
2022-07-27T11:22:28.314Z,72.30
2022-07-27T11:24:10.722Z,72.50
2022-07-27T11:25:10.211Z,72.21
2022-07-27T11:26:10.161Z,72.40
2022-07-27T11:27:16.397Z,72.50
2022-07-27T11:28:10.066Z,72.21
2022-07-27T11:29:10.280Z,72.60
2022-07-27T11:30:09.972Z,72.40
2022-07-27T11:31:09.948Z,72.21
2022-07-27T11:32:09.881Z,72.21
2022-07-27T11:33:09.836Z,72.40
2022-07-27T11:34:10.205Z,72.60
2022-07-27T11:35:11.786Z,72.40
2022-07-27T11:36:09.693Z,72.50
2022-07-27T11:37:09.649Z,72.30
2022-07-27T11:38:09.602Z,72.50
2022-07-27T11:39:14.787Z,72.40
2022-07-27T11:40:37.496Z,72.40
2022-07-27T11:41:16.903Z,72.11
2022-07-27T11:42:12.376Z,71.24
2022-07-27T11:43:09.372Z,71.34
2022-07-27T11:44:09.556Z,71.92
2022-07-27T11:45:09.280Z,71.14
2022-07-27T11:46:09.287Z,71.11
2022-07-27T11:47:09.183Z,71.24
2022-07-27T11:48:09.136Z,71.53
2022-07-27T11:49:09.737Z,72.02
2022-07-27T11:50:09.215Z,71.98
2022-07-27T11:51:08.998Z,71.72
2022-07-27T11:52:08.951Z,71.62
2022-07-27T11:53:08.905Z,71.92
2022-07-27T11:54:08.863Z,72.11
2022-07-27T11:55:08.813Z,71.92
2022-07-27T11:56:08.762Z,72.02
2022-07-27T11:57:08.717Z,71.92
2022-07-27T11:58:08.670Z,71.82
2022-07-27T11:59:08.623Z,71.72
2022-07-27T12:00:08.580Z,71.92
2022-07-27T12:01:08.531Z,72.02
2022-07-27T12:02:08.508Z,71.72
2022-07-27T12:03:08.440Z,72.02
2022-07-27T12:04:08.393Z,72.02
2022-07-27T12:05:08.371Z,71.92
2022-07-27T12:06:08.298Z,72.02
2022-07-27T12:07:08.253Z,72.02
2022-07-27T12:08:08.206Z,72.02
2022-07-27T12:09:08.165Z,71.24
2022-07-27T12:10:08.112Z,71.04
2022-07-27T12:11:08.067Z,71.53
2022-07-27T12:12:08.018Z,71.44
2022-07-27T12:13:07.972Z,70.95
2022-07-27T12:14:07.930Z,71.34
2022-07-27T12:15:28.100Z,71.92
2022-07-27T12:16:07.832Z,72.11
2022-07-27T12:17:07.892Z,71.44
2022-07-27T12:18:07.739Z,71.04
2022-07-27T12:19:07.694Z,71.34
2022-07-27T12:20:07.646Z,71.34
2022-07-27T12:21:07.600Z,71.04
2022-07-27T12:22:07.553Z,71.44
2022-07-27T12:23:07.716Z,71.34
2022-07-27T12:24:07.458Z,71.04
2022-07-27T12:25:15.999Z,71.34
2022-07-27T12:26:07.366Z,71.14
2022-07-27T12:27:07.324Z,71.04
2022-07-27T12:28:07.274Z,71.34
2022-07-27T12:29:07.230Z,71.24
2022-07-27T12:30:07.183Z,71.14
2022-07-27T12:31:07.190Z,71.04
2022-07-27T12:32:07.087Z,71.14
2022-07-27T12:33:07.045Z,71.24
2022-07-27T12:34:06.995Z,71.14
2022-07-27T12:35:06.950Z,71.24
2022-07-27T12:36:06.901Z,71.14
2022-07-27T12:37:06.858Z,71.14
2022-07-27T12:38:06.810Z,71.34
2022-07-27T12:39:06.765Z,71.14
2022-07-27T12:40:06.720Z,71.04
2022-07-27T12:41:06.671Z,71.04
2022-07-27T12:42:06.623Z,71.04
2022-07-27T12:43:06.578Z,71.24
2022-07-27T12:44:06.529Z,71.24
2022-07-27T12:45:06.485Z,71.04
2022-07-27T12:46:06.509Z,70.95
2022-07-27T12:47:06.391Z,71.34
2022-07-27T12:48:06.344Z,71.24
2022-07-27T12:49:06.340Z,71.44
2022-07-27T12:50:06.251Z,71.14
2022-07-27T12:51:06.226Z,71.44
2022-07-27T12:52:06.158Z,70.95
2022-07-27T12:53:06.114Z,71.14
2022-07-27T12:54:06.064Z,71.34
2022-07-27T12:55:06.023Z,70.56
2022-07-27T12:56:05.975Z,70.66